createdAt,value
2023-04-21T00:00:28.670Z,6.5710
2023-04-21T00:01:30.385Z,6.5922
2023-04-21T00:02:33.408Z,6.5978
2023-04-21T00:03:33.784Z,6.5773
2023-04-21T00:04:35.464Z,6.5574
2023-04-21T00:05:37.233Z,6.5556
2023-04-21T00:06:38.594Z,6.5597
2023-04-21T00:07:40.231Z,6.5385
2023-04-21T00:08:41.913Z,6.4861
2023-04-21T00:09:43.545Z,6.4372
2023-04-21T00:10:45.162Z,6.4300
2023-04-21T00:11:46.853Z,6.4488
2023-04-21T00:12:48.445Z,6.4733
2023-04-21T00:13:50.150Z,6.4890
2023-04-21T00:14:51.814Z,6.4832
2023-04-21T00:15:53.395Z,6.4799
2023-04-21T00:16:55.012Z,6.4800
2023-04-21T00:17:56.591Z,6.4711
2023-04-21T00:18:58.220Z,6.4703
2023-04-21T00:19:59.898Z,6.4686
2023-04-21T00:21:01.590Z,6.4315
2023-04-21T00:22:03.183Z,6.3781
2023-04-21T00:23:04.839Z,6.3386
2023-04-21T00:24:06.540Z,6.2888
2023-04-21T00:25:08.135Z,6.2398
2023-04-21T00:26:09.781Z,6.2178
2023-04-21T00:27:11.400Z,6.2108
2023-04-21T00:28:13.060Z,6.1952
2023-04-21T00:29:14.801Z,6.1795
2023-04-21T00:30:16.369Z,6.1605
2023-04-21T00:31:18.061Z,6.1480
2023-04-21T00:32:19.700Z,6.1420
2023-04-21T00:33:21.277Z,6.1248
2023-04-21T00:34:22.960Z,6.1148
2023-04-21T00:35:24.604Z,6.1112
2023-04-21T00:36:26.223Z,6.1218
2023-04-21T00:37:27.881Z,6.1257
2023-04-21T00:38:29.539Z,6.1312
2023-04-21T00:39:31.202Z,6.1301
2023-04-21T00:40:32.812Z,6.1170
2023-04-21T00:41:34.498Z,6.1088
2023-04-21T00:42:36.120Z,6.1139
2023-04-21T00:43:37.766Z,6.1048
2023-04-21T00:44:39.441Z,6.0940
2023-04-21T00:45:41.068Z,6.0733
2023-04-21T00:46:42.743Z,6.0542
2023-04-21T00:47:44.414Z,6.0441
2023-04-21T00:48:46.024Z,6.0270
2023-04-21T00:49:47.681Z,5.9984
2023-04-21T00:50:49.282Z,5.9598
2023-04-21T00:51:50.960Z,5.9300
2023-04-21T00:52:52.594Z,5.9004
2023-04-21T00:53:54.231Z,5.8560
2023-04-21T00:54:55.941Z,5.8014
2023-04-21T00:55:57.555Z,5.7615
2023-04-21T00:57:00.500Z,5.7359
2023-04-21T00:58:00.846Z,5.7482
2023-04-21T00:59:02.489Z,5.7931
2023-04-21T01:00:04.219Z,5.8581
2023-04-21T01:01:05.928Z,5.9215
2023-04-21T01:02:07.544Z,5.9707
2023-04-21T01:03:09.342Z,5.9964
2023-04-21T01:04:10.905Z,5.9953
2023-04-21T01:05:12.497Z,5.9725
2023-04-21T01:06:14.177Z,5.9460
2023-04-21T01:07:15.777Z,5.9496
2023-04-21T01:08:17.432Z,5.9710
2023-04-21T01:09:19.238Z,6.0007
2023-04-21T01:10:20.759Z,6.0400
2023-04-21T01:11:22.466Z,6.0766
2023-04-21T01:12:24.105Z,6.1009
2023-04-21T01:13:25.715Z,6.1088
2023-04-21T01:14:27.412Z,6.1074
2023-04-21T01:15:29.002Z,6.0918
2023-04-21T01:16:30.738Z,6.0445
2023-04-21T01:17:32.338Z,5.9753
2023-04-21T01:18:33.974Z,5.9312
2023-04-21T01:19:35.685Z,5.9132
2023-04-21T01:20:37.368Z,5.9037
2023-04-21T01:21:39.005Z,5.9096
2023-04-21T01:22:40.629Z,5.8942
2023-04-21T01:23:42.213Z,5.8929
2023-04-21T01:24:43.867Z,5.9197
2023-04-21T01:25:45.456Z,5.9588
2023-04-21T01:26:47.230Z,5.9857
2023-04-21T01:27:48.853Z,5.9857
2023-04-21T01:28:50.412Z,5.9719
2023-04-21T01:29:52.061Z,5.9624
2023-04-21T01:30:53.778Z,5.9471
2023-04-21T01:31:55.461Z,5.9361
2023-04-21T01:32:57.056Z,5.9264
2023-04-21T01:33:58.744Z,5.9076
2023-04-21T01:35:00.319Z,5.8896
2023-04-21T01:36:01.972Z,5.8748
2023-04-21T01:37:03.654Z,5.8734
2023-04-21T01:38:05.274Z,5.8881
2023-04-21T01:39:06.895Z,5.8980
2023-04-21T01:40:08.534Z,5.9278
2023-04-21T01:41:10.197Z,5.9737
2023-04-21T01:42:11.937Z,6.0131
2023-04-21T01:43:13.509Z,6.0161
2023-04-21T01:44:15.174Z,5.9838
2023-04-21T01:45:16.813Z,5.9446
2023-04-21T01:46:18.484Z,5.9372
2023-04-21T01:47:20.177Z,5.9245
2023-04-21T01:48:21.871Z,5.8979
2023-04-21T01:49:23.421Z,5.8806
2023-04-21T01:50:25.123Z,5.8682
2023-04-21T01:51:26.736Z,5.8579
2023-04-21T01:52:28.456Z,5.8660
2023-04-21T01:53:30.053Z,5.8781
2023-04-21T01:54:31.698Z,5.8958
2023-04-21T01:55:33.355Z,5.8899
2023-04-21T01:56:35.098Z,5.8526
2023-04-21T01:57:36.656Z,5.8142
2023-04-21T01:58:38.297Z,5.7829
2023-04-21T01:59:39.938Z,5.7636
2023-04-21T02:00:41.617Z,5.7742
2023-04-21T02:01:43.227Z,5.7850
2023-04-21T02:02:44.960Z,5.7907
2023-04-21T02:03:46.641Z,5.7826
2023-04-21T02:04:48.108Z,5.7591
2023-04-21T02:05:49.746Z,5.7137
2023-04-21T02:06:51.421Z,5.6541
2023-04-21T02:07:53.042Z,5.6041
2023-04-21T02:08:54.675Z,5.5861
2023-04-21T02:09:56.447Z,5.5945
2023-04-21T02:10:57.938Z,5.6074
2023-04-21T02:11:59.682Z,5.6056
2023-04-21T02:13:01.264Z,5.5918
2023-04-21T02:14:02.915Z,5.5798
2023-04-21T02:15:04.551Z,5.5829
2023-04-21T02:16:13.530Z,5.5915
2023-04-21T02:17:07.850Z,5.6053
2023-04-21T02:18:09.512Z,5.6085
2023-04-21T02:19:11.163Z,5.6049
2023-04-21T02:20:12.766Z,5.6213
2023-04-21T02:21:14.444Z,5.6513
2023-04-21T02:22:16.166Z,5.6889
2023-04-21T02:23:17.804Z,5.7341
2023-04-21T02:24:19.441Z,5.7860
2023-04-21T02:25:21.085Z,5.8410
2023-04-21T02:26:22.724Z,5.9008
2023-04-21T02:27:24.384Z,5.9555
2023-04-21T02:28:26.021Z,5.9988
2023-04-21T02:29:27.664Z,6.0038
2023-04-21T02:30:29.306Z,5.9758
2023-04-21T02:31:30.981Z,5.9206
2023-04-21T02:32:32.851Z,5.8606
2023-04-21T02:33:34.237Z,5.8054
2023-04-21T02:34:35.857Z,5.7956
2023-04-21T02:35:37.509Z,5.8077
2023-04-21T02:36:39.233Z,5.8092
2023-04-21T02:37:40.926Z,5.8164
2023-04-21T02:38:42.520Z,5.8165
2023-04-21T02:39:44.199Z,5.8256
2023-04-21T02:40:45.830Z,5.8318
2023-04-21T02:41:47.401Z,5.8219
2023-04-21T02:42:49.104Z,5.8054
2023-04-21T02:43:50.660Z,5.7716
2023-04-21T02:44:52.309Z,5.7444
2023-04-21T02:45:53.940Z,5.7130
2023-04-21T02:46:55.723Z,5.6575
2023-04-21T02:47:57.323Z,5.6067
2023-04-21T02:48:58.902Z,5.5844
2023-04-21T02:50:00.520Z,5.5859
2023-04-21T02:51:02.201Z,5.6126
2023-04-21T02:52:03.838Z,5.6392
2023-04-21T02:53:05.528Z,5.6722
2023-04-21T02:54:07.129Z,5.6989
2023-04-21T02:55:08.769Z,5.7105
2023-04-21T02:56:10.413Z,5.7138
2023-04-21T02:57:12.050Z,5.6890
2023-04-21T02:58:13.744Z,5.6654
2023-04-21T02:59:15.365Z,5.6502
2023-04-21T03:00:16.985Z,5.6245
2023-04-21T03:01:18.775Z,5.5863
2023-04-21T03:02:20.369Z,5.5649
2023-04-21T03:03:22.167Z,5.5580
2023-04-21T03:04:23.655Z,5.5321
2023-04-21T03:05:25.211Z,5.5064
2023-04-21T03:06:26.880Z,5.4923
2023-04-21T03:07:28.536Z,5.4960
2023-04-21T03:08:30.197Z,5.5076
2023-04-21T03:09:31.816Z,5.4993
2023-04-21T03:10:33.433Z,5.4893
2023-04-21T03:11:35.121Z,5.4966
2023-04-21T03:12:36.763Z,5.5288
2023-04-21T03:13:38.456Z,5.5725
2023-04-21T03:14:40.053Z,5.5952
2023-04-21T03:15:41.810Z,5.5988
2023-04-21T03:16:43.476Z,5.5805
2023-04-21T03:17:45.110Z,5.5420
2023-04-21T03:18:46.811Z,5.5403
2023-04-21T03:19:48.478Z,5.5734
2023-04-21T03:20:50.030Z,5.6173
2023-04-21T03:21:51.712Z,5.6438
2023-04-21T03:22:53.319Z,5.6625
2023-04-21T03:23:54.990Z,5.7046
2023-04-21T03:24:56.662Z,5.7371
2023-04-21T03:25:58.271Z,5.7474
2023-04-21T03:26:59.986Z,5.7469
2023-04-21T03:28:01.643Z,5.7510
2023-04-21T03:29:03.231Z,5.7587
2023-04-21T03:30:04.864Z,5.7660
2023-04-21T03:31:06.472Z,5.7614
2023-04-21T03:32:08.257Z,5.7491
2023-04-21T03:33:09.795Z,5.7574
2023-04-21T03:34:11.484Z,5.7865
2023-04-21T03:35:13.061Z,5.8218
2023-04-21T03:36:14.732Z,5.8326
2023-04-21T03:37:16.455Z,5.8204
2023-04-21T03:38:18.071Z,5.8019
2023-04-21T03:39:20.555Z,5.7667
2023-04-21T03:40:21.310Z,5.7072
2023-04-21T03:41:22.992Z,5.6449
2023-04-21T03:42:24.622Z,5.5907
2023-04-21T03:43:26.346Z,5.5274
2023-04-21T03:44:27.991Z,5.4953
2023-04-21T03:45:29.562Z,5.5001
2023-04-21T03:46:31.159Z,5.5091
2023-04-21T03:47:32.899Z,5.5261
2023-04-21T03:48:34.459Z,5.5366
2023-04-21T03:49:36.101Z,5.5267
2023-04-21T03:50:37.713Z,5.5248
2023-04-21T03:51:39.374Z,5.5206
2023-04-21T03:52:41.016Z,5.5122
2023-04-21T03:53:42.682Z,5.4853
2023-04-21T03:54:44.332Z,5.4535
2023-04-21T03:55:45.957Z,5.4193
2023-04-21T03:56:47.594Z,5.3745
2023-04-21T03:57:49.264Z,5.3502
2023-04-21T03:58:50.936Z,5.3464
2023-04-21T03:59:52.647Z,5.3739
2023-04-21T04:00:54.225Z,5.4176
2023-04-21T04:01:55.868Z,5.4445
2023-04-21T04:02:57.760Z,5.4496
2023-04-21T04:03:59.377Z,5.4543
2023-04-21T04:05:00.801Z,5.4547
2023-04-21T04:06:02.465Z,5.4552
2023-04-21T04:07:04.105Z,5.4690
2023-04-21T04:08:05.717Z,5.4792
2023-04-21T04:09:07.424Z,5.4937
2023-04-21T04:10:09.054Z,5.4878
2023-04-21T04:11:10.709Z,5.4719
2023-04-21T04:12:12.323Z,5.4723
2023-04-21T04:13:13.958Z,5.4706
2023-04-21T04:14:15.669Z,5.4721
2023-04-21T04:15:17.278Z,5.4830
2023-04-21T04:16:18.958Z,5.4989
2023-04-21T04:17:20.573Z,5.4893
2023-04-21T04:18:22.192Z,5.4717
2023-04-21T04:19:23.891Z,5.4473
2023-04-21T04:20:25.520Z,5.4383
2023-04-21T04:21:27.131Z,5.4593
2023-04-21T04:22:28.860Z,5.4932
2023-04-21T04:23:30.520Z,5.5132
2023-04-21T04:24:32.256Z,5.4956
2023-04-21T04:25:33.873Z,5.4529
2023-04-21T04:26:35.402Z,5.4443
2023-04-21T04:27:37.187Z,5.4663
2023-04-21T04:28:38.685Z,5.5055
2023-04-21T04:29:40.356Z,5.5539
2023-04-21T04:30:42.000Z,5.5936
2023-04-21T04:31:43.739Z,5.5799
2023-04-21T04:32:45.505Z,5.5283
2023-04-21T04:33:46.936Z,5.4889
2023-04-21T04:34:48.572Z,5.5088
2023-04-21T04:35:50.257Z,5.5470
2023-04-21T04:36:51.869Z,5.5986
2023-04-21T04:37:53.526Z,5.6332
2023-04-21T04:38:55.167Z,5.6504
2023-04-21T04:39:56.807Z,5.6716
2023-04-21T04:40:58.495Z,5.6970
2023-04-21T04:42:00.142Z,5.7242
2023-04-21T04:43:01.854Z,5.7695
2023-04-21T04:44:03.403Z,5.8213
2023-04-21T04:45:05.063Z,5.8556
2023-04-21T04:46:06.779Z,5.8702
2023-04-21T04:47:08.402Z,5.8619
2023-04-21T04:48:10.021Z,5.8753
2023-04-21T04:49:11.833Z,5.9141
2023-04-21T04:50:13.326Z,5.9586
2023-04-21T04:51:15.015Z,6.0036
2023-04-21T04:52:16.604Z,6.0506
2023-04-21T04:53:18.236Z,6.0974
2023-04-21T04:54:20.049Z,6.1440
2023-04-21T04:55:21.552Z,6.1734
2023-04-21T04:56:23.212Z,6.1842
2023-04-21T04:57:24.832Z,6.1830
2023-04-21T04:58:26.504Z,6.1748
2023-04-21T04:59:30.124Z,6.1610
2023-04-21T05:00:29.776Z,6.1697
2023-04-21T05:01:31.478Z,6.1841
2023-04-21T05:02:33.322Z,6.1917
2023-04-21T05:03:35.053Z,6.1709
2023-04-21T05:04:36.462Z,6.1279
2023-04-21T05:05:38.035Z,6.0891
2023-04-21T05:06:39.692Z,6.0560
2023-04-21T05:07:41.303Z,6.0380
2023-04-21T05:08:43.007Z,6.0448
2023-04-21T05:09:44.695Z,6.0681
2023-04-21T05:10:46.331Z,6.0852
2023-04-21T05:11:48.023Z,6.1004
2023-04-21T05:12:49.636Z,6.1309
2023-04-21T05:13:51.281Z,6.1657
2023-04-21T05:14:52.914Z,6.1890
2023-04-21T05:15:54.574Z,6.2153
2023-04-21T05:16:56.283Z,6.2455
2023-04-21T05:17:57.939Z,6.2651
2023-04-21T05:18:59.513Z,6.2668
2023-04-21T05:20:01.265Z,6.2875
2023-04-21T05:21:02.873Z,6.3152
2023-04-21T05:22:04.498Z,6.3350
2023-04-21T05:23:06.172Z,6.3477
2023-04-21T05:24:07.769Z,6.3595
2023-04-21T05:25:09.438Z,6.3735
2023-04-21T05:26:11.105Z,6.3993
2023-04-21T05:27:12.720Z,6.4335
2023-04-21T05:28:14.410Z,6.4630
2023-04-21T05:29:16.013Z,6.4713
2023-04-21T05:30:17.553Z,6.4721
2023-04-21T05:31:19.236Z,6.4863
2023-04-21T05:32:21.104Z,6.5114
2023-04-21T05:33:22.584Z,6.5433
2023-04-21T05:34:24.144Z,6.5800
2023-04-21T05:35:25.781Z,6.6209
2023-04-21T05:36:27.482Z,6.6687
2023-04-21T05:37:29.061Z,6.7096
2023-04-21T05:38:30.743Z,6.7464
2023-04-21T05:39:32.362Z,6.7750
2023-04-21T05:40:34.138Z,6.8024
2023-04-21T05:41:35.697Z,6.8310
2023-04-21T05:42:37.320Z,6.8603
2023-04-21T05:43:38.976Z,6.8840
2023-04-21T05:44:40.599Z,6.9019
2023-04-21T05:45:42.321Z,6.9244
2023-04-21T05:46:43.956Z,6.9530
2023-04-21T05:47:45.617Z,6.9882
2023-04-21T05:48:47.200Z,7.0218
2023-04-21T05:49:48.946Z,7.0579
2023-04-21T05:50:50.502Z,7.0898
2023-04-21T05:51:52.153Z,7.1096
2023-04-21T05:52:53.781Z,7.1173
2023-04-21T05:53:55.625Z,7.1191
2023-04-21T05:54:57.102Z,7.1166
2023-04-21T05:55:58.747Z,7.1080
2023-04-21T05:57:00.441Z,7.0830
2023-04-21T05:58:02.043Z,7.0686
2023-04-21T05:59:03.692Z,7.0674
2023-04-21T06:00:05.333Z,7.0628
2023-04-21T06:01:06.987Z,7.0601
2023-04-21T06:02:08.704Z,7.0509
2023-04-21T06:03:10.573Z,7.0498
2023-04-21T06:04:12.155Z,7.0625
2023-04-21T06:05:13.736Z,7.0766
2023-04-21T06:06:15.271Z,7.0951
2023-04-21T06:07:18.664Z,7.1117
2023-04-21T06:08:18.562Z,7.1222
2023-04-21T06:09:20.194Z,7.1349
2023-04-21T06:10:21.846Z,7.1509
2023-04-21T06:11:23.496Z,7.1635
2023-04-21T06:12:25.219Z,7.1732
2023-04-21T06:13:26.794Z,7.1881
2023-04-21T06:14:28.430Z,7.2022
2023-04-21T06:15:30.075Z,7.2186
2023-04-21T06:16:31.816Z,7.2441
2023-04-21T06:17:33.410Z,7.2726
2023-04-21T06:18:34.977Z,7.3014
2023-04-21T06:19:36.585Z,7.3273
2023-04-21T06:20:38.249Z,7.3487
2023-04-21T06:21:39.883Z,7.3680
2023-04-21T06:22:41.629Z,7.3847
2023-04-21T06:23:43.208Z,7.4005
2023-04-21T06:24:44.934Z,7.4095
2023-04-21T06:25:46.566Z,7.4086
2023-04-21T06:26:48.199Z,7.4066
2023-04-21T06:27:49.886Z,7.4098
2023-04-21T06:28:51.501Z,7.4147
2023-04-21T06:29:53.144Z,7.4203
2023-04-21T06:30:54.793Z,7.4315
2023-04-21T06:31:56.461Z,7.4450
2023-04-21T06:32:58.143Z,7.4618
2023-04-21T06:33:59.720Z,7.4850
2023-04-21T06:35:01.372Z,7.4998
2023-04-21T06:36:03.012Z,7.5028
2023-04-21T06:37:04.659Z,7.5034
2023-04-21T06:38:06.319Z,7.5132
2023-04-21T06:39:07.935Z,7.5216
2023-04-21T06:40:09.600Z,7.5288
2023-04-21T06:41:11.221Z,7.5363
2023-04-21T06:42:12.921Z,7.5384
2023-04-21T06:43:14.559Z,7.5302
2023-04-21T06:44:16.178Z,7.5230
2023-04-21T06:45:18.001Z,7.5106
2023-04-21T06:46:19.536Z,7.4858
2023-04-21T06:47:21.158Z,7.4661
2023-04-21T06:48:22.799Z,7.4629
2023-04-21T06:49:24.413Z,7.4790
2023-04-21T06:50:26.108Z,7.5041
2023-04-21T06:51:27.718Z,7.5258
2023-04-21T06:52:29.358Z,7.5514
2023-04-21T06:53:31.144Z,7.5689
2023-04-21T06:54:32.746Z,7.5821
2023-04-21T06:55:34.369Z,7.6008
2023-04-21T06:56:36.115Z,7.6265
2023-04-21T06:57:37.677Z,7.6398
2023-04-21T06:58:39.636Z,7.6281
2023-04-21T06:59:40.982Z,7.5766
2023-04-21T07:00:42.666Z,7.5397
2023-04-21T07:01:44.264Z,7.5254
2023-04-21T07:02:45.958Z,7.5264
2023-04-21T07:03:47.729Z,7.5415
2023-04-21T07:04:49.273Z,7.5690
2023-04-21T07:05:50.910Z,7.6023
2023-04-21T07:06:52.476Z,7.6409
2023-04-21T07:07:54.254Z,7.6643
2023-04-21T07:08:55.778Z,7.6792
2023-04-21T07:09:57.533Z,7.6841
2023-04-21T07:10:59.223Z,7.6884
2023-04-21T07:12:00.716Z,7.6908
2023-04-21T07:13:02.431Z,7.6995
2023-04-21T07:14:03.927Z,7.7168
2023-04-21T07:15:05.586Z,7.7461
2023-04-21T07:16:07.300Z,7.7787
2023-04-21T07:17:09.148Z,7.8137
2023-04-21T07:18:10.581Z,7.8345
2023-04-21T07:19:12.167Z,7.8479
2023-04-21T07:20:13.816Z,7.8722
2023-04-21T07:21:15.482Z,7.9054
2023-04-21T07:22:17.073Z,7.9453
2023-04-21T07:23:18.781Z,7.9860
2023-04-21T07:24:20.386Z,8.0146
2023-04-21T07:25:22.033Z,8.0335
2023-04-21T07:26:23.653Z,8.0491
2023-04-21T07:27:25.309Z,8.0611
2023-04-21T07:28:26.969Z,8.0605
2023-04-21T07:29:28.592Z,8.0654
2023-04-21T07:30:30.252Z,8.0766
2023-04-21T07:31:31.959Z,8.0953
2023-04-21T07:32:33.560Z,8.1201
2023-04-21T07:33:35.224Z,8.1552
2023-04-21T07:34:36.793Z,8.1975
2023-04-21T07:35:38.431Z,8.2447
2023-04-21T07:36:40.087Z,8.3005
2023-04-21T07:37:41.819Z,8.3452
2023-04-21T07:38:43.503Z,8.3883
2023-04-21T07:39:45.258Z,8.4357
2023-04-21T07:40:46.690Z,8.4831
2023-04-21T07:41:48.328Z,8.5279
2023-04-21T07:42:49.967Z,8.5726
2023-04-21T07:43:53.719Z,8.6093
2023-04-21T07:44:53.281Z,8.6337
2023-04-21T07:45:54.924Z,8.6579
2023-04-21T07:46:56.563Z,8.6681
2023-04-21T07:47:58.207Z,8.6743
2023-04-21T07:49:01.412Z,8.6879
2023-04-21T07:50:01.639Z,8.7016
2023-04-21T07:51:03.213Z,8.7216
2023-04-21T07:52:04.852Z,8.7484
2023-04-21T07:53:06.569Z,8.7777
2023-04-21T07:54:08.225Z,8.7966
2023-04-21T07:55:09.808Z,8.8011
2023-04-21T07:56:11.436Z,8.7976
2023-04-21T07:57:13.094Z,8.7973
2023-04-21T07:58:14.763Z,8.7984
2023-04-21T07:59:16.424Z,8.8049
2023-04-21T08:00:17.994Z,8.8161
2023-04-21T08:01:19.690Z,8.8293
2023-04-21T08:02:21.335Z,8.8499
2023-04-21T08:03:24.624Z,8.8666
2023-04-21T08:04:24.848Z,8.8775
2023-04-21T08:05:30.305Z,8.8853
2023-04-21T08:06:27.947Z,8.8845
2023-04-21T08:07:29.512Z,8.9025
2023-04-21T08:08:32.080Z,8.9284
2023-04-21T08:09:32.775Z,8.9385
2023-04-21T08:10:34.393Z,8.9316
2023-04-21T08:11:36.061Z,8.9065
2023-04-21T08:12:37.683Z,8.8792
2023-04-21T08:13:39.333Z,8.8432
2023-04-21T08:14:41.037Z,8.8202
2023-04-21T08:15:42.593Z,8.8194
2023-04-21T08:16:44.425Z,8.8359
2023-04-21T08:17:45.951Z,8.8501
2023-04-21T08:18:47.572Z,8.8482
2023-04-21T08:19:49.227Z,8.8521
2023-04-21T08:20:50.826Z,8.8675
2023-04-21T08:21:52.972Z,8.8869
2023-04-21T08:22:54.248Z,8.8930
2023-04-21T08:23:55.800Z,8.8925
2023-04-21T08:24:57.428Z,8.8952
2023-04-21T08:25:59.045Z,8.8821
2023-04-21T08:27:00.690Z,8.8652
2023-04-21T08:28:02.350Z,8.8664
2023-04-21T08:29:04.627Z,8.8843
2023-04-21T08:30:05.844Z,8.9091
2023-04-21T08:31:07.403Z,8.9339
2023-04-21T08:32:09.019Z,8.9394
2023-04-21T08:33:10.740Z,8.9597
2023-04-21T08:34:12.368Z,8.9944
2023-04-21T08:35:13.972Z,9.0406
2023-04-21T08:36:28.391Z,9.0855
2023-04-21T08:37:17.213Z,9.1135
2023-04-21T08:38:18.897Z,9.1431
2023-04-21T08:39:20.687Z,9.1806
2023-04-21T08:40:22.258Z,9.2208
2023-04-21T08:41:23.793Z,9.2645
2023-04-21T08:42:25.431Z,9.2949
2023-04-21T08:43:27.082Z,9.3120
2023-04-21T08:44:28.723Z,9.3328
2023-04-21T08:45:30.500Z,9.3549
2023-04-21T08:46:32.122Z,9.3504
2023-04-21T08:47:33.738Z,9.3435
2023-04-21T08:48:35.300Z,9.3623
2023-04-21T08:49:37.032Z,9.4001
2023-04-21T08:50:38.602Z,9.4535
2023-04-21T08:51:40.233Z,9.5057
2023-04-21T08:52:41.880Z,9.5629
2023-04-21T08:53:43.508Z,9.6189
2023-04-21T08:54:45.177Z,9.6714
2023-04-21T08:55:53.723Z,9.7349
2023-04-21T08:56:48.409Z,9.7973
2023-04-21T08:57:49.910Z,9.8677
2023-04-21T08:58:51.645Z,9.9447
2023-04-21T08:59:53.284Z,10.0197
2023-04-21T09:00:54.959Z,10.0989
2023-04-21T09:01:56.491Z,10.1747
2023-04-21T09:03:01.357Z,10.2568
2023-04-21T09:03:59.918Z,10.3301
2023-04-21T09:05:01.783Z,10.3982
2023-04-21T09:06:03.568Z,10.4429
2023-04-21T09:07:04.795Z,10.4809
2023-04-21T09:08:06.363Z,10.5177
2023-04-21T09:09:08.223Z,10.5474
2023-04-21T09:10:09.682Z,10.5704
2023-04-21T09:11:11.280Z,10.5838
2023-04-21T09:12:12.942Z,10.5786
2023-04-21T09:13:14.515Z,10.5839
2023-04-21T09:14:16.171Z,10.5949
2023-04-21T09:15:17.856Z,10.6136
2023-04-21T09:16:19.493Z,10.6371
2023-04-21T09:17:21.112Z,10.6566
2023-04-21T09:18:22.776Z,10.6791
2023-04-21T09:19:24.352Z,10.6838
2023-04-21T09:20:26.234Z,10.7005
2023-04-21T09:21:28.392Z,10.7180
2023-04-21T09:22:29.464Z,10.7247
2023-04-21T09:23:30.904Z,10.7309
2023-04-21T09:24:32.545Z,10.7360
2023-04-21T09:25:34.187Z,10.7439
2023-04-21T09:26:36.875Z,10.7534
2023-04-21T09:27:37.484Z,10.7591
2023-04-21T09:28:39.124Z,10.7516
2023-04-21T09:29:40.749Z,10.7507
2023-04-21T09:30:42.494Z,10.7602
2023-04-21T09:31:44.257Z,10.7628
2023-04-21T09:32:45.810Z,10.7591
2023-04-21T09:33:57.606Z,10.7546
2023-04-21T09:34:49.114Z,10.7339
2023-04-21T09:35:50.603Z,10.7281
2023-04-21T09:36:52.282Z,10.7266
2023-04-21T09:37:53.879Z,10.7231
2023-04-21T09:39:13.093Z,10.7118
2023-04-21T09:40:04.198Z,10.6918
2023-04-21T09:40:58.783Z,10.6762
2023-04-21T09:42:00.474Z,10.6548
2023-04-21T09:43:02.095Z,10.6342
2023-04-21T09:44:03.709Z,10.6184
2023-04-21T09:45:23.170Z,10.6041
2023-04-21T09:46:07.063Z,10.5826
2023-04-21T09:47:08.706Z,10.5669
2023-04-21T09:48:10.336Z,10.5508
2023-04-21T09:49:11.901Z,10.5360
2023-04-21T09:50:13.695Z,10.5309
2023-04-21T09:51:30.716Z,10.5326
2023-04-21T09:52:19.449Z,10.5371
2023-04-21T09:53:18.559Z,10.5549
2023-04-21T09:54:28.996Z,10.5852
2023-04-21T09:55:21.927Z,10.6145
2023-04-21T09:56:23.490Z,10.6455
2023-04-21T09:57:25.162Z,10.6542
2023-04-21T09:58:26.865Z,10.6749
2023-04-21T09:59:28.449Z,10.7111
2023-04-21T10:00:29.998Z,10.7550
2023-04-21T10:01:31.658Z,10.8005
2023-04-21T10:02:33.423Z,10.8582
2023-04-21T10:03:35.101Z,10.9153
2023-04-21T10:04:36.719Z,10.9487
2023-04-21T10:05:40.253Z,10.9729
2023-04-21T10:06:39.813Z,11.0084
2023-04-21T10:07:41.495Z,11.0532
2023-04-21T10:08:43.089Z,11.0949
2023-04-21T10:09:44.753Z,11.1182
2023-04-21T10:10:46.372Z,11.1153
2023-04-21T10:11:48.034Z,11.1063
2023-04-21T10:25:56.397Z,11.5172
2023-04-21T10:26:57.966Z,11.4147
2023-04-21T10:27:59.671Z,11.5660
2023-04-21T10:29:01.326Z,11.7103
2023-04-21T10:30:02.870Z,11.5985
2023-04-21T10:31:04.639Z,11.2404
2023-04-21T10:32:08.966Z,10.9712
2023-04-21T10:33:07.847Z,10.7766
2023-04-21T10:34:09.500Z,10.5915
2023-04-21T10:35:11.138Z,10.3956
2023-04-21T10:36:12.782Z,10.2997
2023-04-21T10:37:14.348Z,10.2620
2023-04-21T10:38:16.028Z,10.2411
2023-04-21T10:39:17.790Z,10.1795
2023-04-21T10:40:19.460Z,10.1419
2023-04-21T10:41:20.938Z,10.1430
2023-04-21T10:42:22.619Z,10.0553
2023-04-21T10:43:24.302Z,9.9490
2023-04-21T10:44:25.949Z,9.9499
2023-04-21T10:45:27.591Z,9.9610
2023-04-21T10:46:29.262Z,10.0146
2023-04-21T10:47:31.045Z,10.0970
2023-04-21T10:48:32.531Z,10.1443
2023-04-21T10:49:34.238Z,10.0820
2023-04-21T10:50:37.482Z,9.9831
2023-04-21T10:51:37.464Z,9.9689
2023-04-21T10:52:39.084Z,9.9461
2023-04-21T10:53:40.755Z,9.9460
2023-04-21T10:54:42.465Z,9.9108
2023-04-21T10:55:44.034Z,9.8954
2023-04-21T10:56:45.692Z,9.9587
2023-04-21T10:57:47.321Z,10.0332
2023-04-21T10:58:48.991Z,10.1044
2023-04-21T10:59:50.663Z,10.2053
2023-04-21T11:00:52.278Z,10.2689
2023-04-21T11:01:53.899Z,10.2672
2023-04-21T11:02:55.667Z,10.2218
2023-04-21T11:03:57.482Z,10.2121
2023-04-21T11:04:59.153Z,10.1432
2023-04-21T11:06:00.498Z,10.1320
2023-04-21T11:07:02.169Z,10.2021
2023-04-21T11:08:03.773Z,10.3084
2023-04-21T11:09:05.427Z,10.5001
2023-04-21T11:10:06.978Z,10.7531
2023-04-21T11:11:08.673Z,10.9932
2023-04-21T11:12:10.323Z,11.1845
2023-04-21T11:13:11.980Z,11.2955
2023-04-21T11:14:13.644Z,11.3889
2023-04-21T11:15:15.269Z,11.4541
2023-04-21T11:16:16.964Z,11.4928
2023-04-21T11:17:18.596Z,11.4763
2023-04-21T11:18:20.214Z,11.4580
2023-04-21T11:19:21.892Z,11.4602
2023-04-21T11:20:23.484Z,11.4251
2023-04-21T11:21:25.140Z,11.4108
2023-04-21T11:22:26.789Z,11.3939
2023-04-21T11:23:28.474Z,11.4153
2023-04-21T11:24:30.097Z,11.4427
2023-04-21T11:25:31.712Z,11.5024
2023-04-21T11:26:33.332Z,11.6267
2023-04-21T11:27:34.978Z,11.6236
2023-04-21T11:28:36.705Z,11.5756
2023-04-21T11:29:38.301Z,11.5735
2023-04-21T11:30:39.927Z,11.6290
2023-04-21T11:31:41.580Z,11.7298
2023-04-21T11:32:43.227Z,11.8140
2023-04-21T11:33:44.830Z,11.8779
2023-04-21T11:34:46.531Z,11.9600
2023-04-21T11:35:48.131Z,12.0628
2023-04-21T11:36:49.773Z,12.0377
2023-04-21T11:37:51.423Z,11.9325
2023-04-21T11:38:53.034Z,11.9069
2023-04-21T11:39:54.766Z,11.9655
2023-04-21T11:40:56.366Z,12.0281
2023-04-21T11:41:57.958Z,12.0616
2023-04-21T11:42:59.634Z,12.1251
2023-04-21T11:44:01.269Z,12.2043
2023-04-21T11:45:02.964Z,12.2506
2023-04-21T11:46:04.546Z,12.0972
2023-04-21T11:47:06.193Z,11.8843
2023-04-21T11:48:07.895Z,11.5631
2023-04-21T11:49:09.474Z,11.4265
2023-04-21T11:50:11.163Z,11.4032
2023-04-21T11:51:12.780Z,11.4914
2023-04-21T11:52:14.375Z,11.6149
2023-04-21T11:53:16.061Z,11.6973
2023-04-21T11:54:17.683Z,11.7104
2023-04-21T11:55:19.371Z,11.6725
2023-04-21T11:56:20.954Z,11.6435
2023-04-21T11:57:22.626Z,11.6848
2023-04-21T11:58:24.252Z,11.7034
2023-04-21T11:59:26.148Z,11.7882
2023-04-21T12:00:27.537Z,11.8592
2023-04-21T12:01:29.152Z,11.9024
2023-04-21T12:02:30.909Z,11.9277
2023-04-21T12:03:32.615Z,11.9423
2023-04-21T12:04:34.668Z,12.0162
2023-04-21T12:05:35.805Z,12.0859
2023-04-21T12:06:37.353Z,12.2275
2023-04-21T12:07:39.014Z,12.4292
2023-04-21T12:08:40.618Z,12.6031
2023-04-21T12:09:42.277Z,12.8189
2023-04-21T12:10:43.931Z,12.9416
2023-04-21T12:11:46.002Z,13.0012
2023-04-21T12:12:47.226Z,13.0290
2023-04-21T12:13:48.870Z,13.0582
2023-04-21T12:14:50.613Z,13.2329
2023-04-21T12:15:52.290Z,13.4380
2023-04-21T12:16:53.925Z,13.5944
2023-04-21T12:17:55.559Z,13.6081
2023-04-21T12:18:57.094Z,13.5282
2023-04-21T12:19:58.732Z,13.5840
2023-04-21T12:21:00.425Z,13.5707
2023-04-21T12:22:02.009Z,13.4089
2023-04-21T12:23:03.686Z,13.3695
2023-04-21T12:24:05.293Z,13.3536
2023-04-21T12:25:06.942Z,13.3615
2023-04-21T12:26:08.615Z,13.3608
2023-04-21T12:27:10.243Z,13.3335
2023-04-21T12:28:11.857Z,13.2367
2023-04-21T12:29:13.520Z,13.1635
2023-04-21T12:30:15.160Z,13.0671
2023-04-21T12:31:17.016Z,13.0245
2023-04-21T12:32:18.627Z,12.9920
2023-04-21T12:33:20.219Z,12.9017
2023-04-21T12:34:21.800Z,12.8604
2023-04-21T12:35:23.418Z,12.8370
2023-04-21T12:36:25.077Z,12.8110
2023-04-21T12:37:26.661Z,12.6962
2023-04-21T12:38:28.388Z,12.6267
2023-04-21T12:39:30.124Z,12.6141
2023-04-21T12:40:31.582Z,12.7024
2023-04-21T12:41:33.281Z,12.7192
2023-04-21T12:42:37.512Z,12.6532
2023-04-21T12:43:36.537Z,12.3577
2023-04-21T12:44:38.208Z,12.0572
2023-04-21T12:45:39.871Z,11.8946
2023-04-21T12:46:41.440Z,11.8974
2023-04-21T12:47:46.248Z,11.9001
2023-04-21T12:48:44.792Z,11.9303
2023-04-21T12:49:46.434Z,11.9397
2023-04-21T12:50:48.107Z,11.9123
2023-04-21T12:51:49.603Z,11.8704
2023-04-21T12:52:51.219Z,11.6960
2023-04-21T12:53:52.859Z,11.5360
2023-04-21T12:54:54.508Z,11.4553
2023-04-21T12:56:03.989Z,11.3673